sensor_id;sensor_type;location;lat;lon;timestamp;P1;durP1;ratioP1;P2;durP2;ratioP2
17890;SDS011;9071;48.220;14.480;2024-02-21T00:01:59;35.37;;;13.80;;
17890;SDS011;9071;48.220;14.480;2024-02-21T00:07:01;55.93;;;22.13;;
17890;SDS011;9071;48.220;14.480;2024-02-21T00:12:05;128.07;;;50.60;;
17890;SDS011;9071;48.220;14.480;2024-02-21T00:17:07;127.90;;;50.60;;
17890;SDS011;9071;48.220;14.480;2024-02-21T00:22:09;200.73;;;88.00;;
17890;SDS011;9071;48.220;14.480;2024-02-21T00:27:13;94.90;;;41.37;;
17890;SDS011;9071;48.220;14.480;2024-02-21T00:32:15;71.87;;;30.13;;
17890;SDS011;9071;48.220;14.480;2024-02-21T00:37:17;59.80;;;27.23;;
17890;SDS011;9071;48.220;14.480;2024-02-21T00:42:20;22.97;;;11.87;;
17890;SDS011;9071;48.220;14.480;2024-02-21T00:47:22;15.20;;;7.73;;
17890;SDS011;9071;48.220;14.480;2024-02-21T00:52:24;10.50;;;4.20;;
17890;SDS011;9071;48.220;14.480;2024-02-21T00:57:27;26.80;;;12.93;;
17890;SDS011;9071;48.220;14.480;2024-02-21T01:02:29;37.87;;;20.83;;
17890;SDS011;9071;48.220;14.480;2024-02-21T01:07:32;64.77;;;32.10;;
17890;SDS011;9071;48.220;14.480;2024-02-21T01:12:36;24.50;;;11.47;;
17890;SDS011;9071;48.220;14.480;2024-02-21T01:17:38;9.87;;;4.67;;
17890;SDS011;9071;48.220;14.480;2024-02-21T01:22:40;10.87;;;4.20;;
17890;SDS011;9071;48.220;14.480;2024-02-21T01:27:44;7.73;;;4.30;;
17890;SDS011;9071;48.220;14.480;2024-02-21T01:32:46;9.13;;;4.00;;
17890;SDS011;9071;48.220;14.480;2024-02-21T01:37:48;9.97;;;3.60;;
17890;SDS011;9071;48.220;14.480;2024-02-21T01:42:54;6.87;;;3.43;;
17890;SDS011;9071;48.220;14.480;2024-02-21T01:47:56;9.67;;;3.40;;
17890;SDS011;9071;48.220;14.480;2024-02-21T01:52:59;7.40;;;3.20;;
17890;SDS011;9071;48.220;14.480;2024-02-21T01:58:03;18.10;;;4.90;;
17890;SDS011;9071;48.220;14.480;2024-02-21T02:03:05;7.50;;;3.67;;
17890;SDS011;9071;48.220;14.480;2024-02-21T02:08:07;6.77;;;3.10;;
17890;SDS011;9071;48.220;14.480;2024-02-21T02:13:11;13.63;;;5.00;;
17890;SDS011;9071;48.220;14.480;2024-02-21T02:18:13;50.67;;;19.60;;
17890;SDS011;9071;48.220;14.480;2024-02-21T02:23:20;156.70;;;58.23;;
17890;SDS011;9071;48.220;14.480;2024-02-21T02:28:23;68.00;;;26.40;;
17890;SDS011;9071;48.220;14.480;2024-02-21T02:33:27;68.03;;;28.07;;
17890;SDS011;9071;48.220;14.480;2024-02-21T02:38:30;16.97;;;7.90;;
17890;SDS011;9071;48.220;14.480;2024-02-21T02:43:32;9.83;;;4.10;;
17890;SDS011;9071;48.220;14.480;2024-02-21T02:48:34;5.70;;;3.50;;
17890;SDS011;9071;48.220;14.480;2024-02-21T02:53:40;8.80;;;4.30;;
17890;SDS011;9071;48.220;14.480;2024-02-21T02:58:42;10.70;;;3.40;;
17890;SDS011;9071;48.220;14.480;2024-02-21T03:03:44;7.47;;;2.77;;
17890;SDS011;9071;48.220;14.480;2024-02-21T03:08:48;6.40;;;2.87;;
17890;SDS011;9071;48.220;14.480;2024-02-21T03:13:55;10.10;;;3.20;;
17890;SDS011;9071;48.220;14.480;2024-02-21T03:18:57;7.87;;;3.20;;
17890;SDS011;9071;48.220;14.480;2024-02-21T03:24:01;10.40;;;2.70;;
17890;SDS011;9071;48.220;14.480;2024-02-21T03:29:03;5.83;;;3.20;;
17890;SDS011;9071;48.220;14.480;2024-02-21T03:34:05;6.77;;;3.20;;
17890;SDS011;9071;48.220;14.480;2024-02-21T03:39:08;7.43;;;3.27;;
17890;SDS011;9071;48.220;14.480;2024-02-21T03:44:10;6.90;;;2.90;;
17890;SDS011;9071;48.220;14.480;2024-02-21T03:49:12;8.47;;;3.10;;
17890;SDS011;9071;48.220;14.480;2024-02-21T03:54:16;9.73;;;3.10;;
17890;SDS011;9071;48.220;14.480;2024-02-21T03:59:18;5.00;;;2.77;;
17890;SDS011;9071;48.220;14.480;2024-02-21T04:04:20;5.63;;;2.80;;
17890;SDS011;9071;48.220;14.480;2024-02-21T04:09:23;6.93;;;3.13;;
17890;SDS011;9071;48.220;14.480;2024-02-21T04:14:25;7.87;;;3.30;;
17890;SDS011;9071;48.220;14.480;2024-02-21T04:19:27;7.37;;;3.10;;
17890;SDS011;9071;48.220;14.480;2024-02-21T04:24:32;7.33;;;3.33;;
17890;SDS011;9071;48.220;14.480;2024-02-21T04:29:34;8.53;;;2.97;;
17890;SDS011;9071;48.220;14.480;2024-02-21T04:34:36;7.97;;;3.47;;
17890;SDS011;9071;48.220;14.480;2024-02-21T04:39:40;6.13;;;3.00;;
17890;SDS011;9071;48.220;14.480;2024-02-21T04:44:42;7.57;;;3.10;;
17890;SDS011;9071;48.220;14.480;2024-02-21T04:49:44;6.47;;;3.00;;
17890;SDS011;9071;48.220;14.480;2024-02-21T04:54:47;8.10;;;3.30;;
17890;SDS011;9071;48.220;14.480;2024-02-21T04:59:50;10.27;;;3.40;;
17890;SDS011;9071;48.220;14.480;2024-02-21T05:04:52;6.20;;;2.90;;
17890;SDS011;9071;48.220;14.480;2024-02-21T05:09:58;7.97;;;3.87;;
17890;SDS011;9071;48.220;14.480;2024-02-21T05:15:00;10.10;;;3.63;;
17890;SDS011;9071;48.220;14.480;2024-02-21T05:20:03;7.83;;;3.63;;
17890;SDS011;9071;48.220;14.480;2024-02-21T05:25:07;11.20;;;4.30;;
17890;SDS011;9071;48.220;14.480;2024-02-21T05:30:10;6.93;;;3.30;;
17890;SDS011;9071;48.220;14.480;2024-02-21T05:35:13;7.90;;;3.20;;
17890;SDS011;9071;48.220;14.480;2024-02-21T05:40:16;6.57;;;3.20;;
17890;SDS011;9071;48.220;14.480;2024-02-21T05:45:19;7.40;;;3.00;;
17890;SDS011;9071;48.220;14.480;2024-02-21T05:50:21;8.33;;;2.90;;
17890;SDS011;9071;48.220;14.480;2024-02-21T05:55:25;8.63;;;3.90;;
17890;SDS011;9071;48.220;14.480;2024-02-21T06:00:28;6.53;;;3.10;;
17890;SDS011;9071;48.220;14.480;2024-02-21T06:05:30;9.67;;;3.20;;
17890;SDS011;9071;48.220;14.480;2024-02-21T06:10:33;8.47;;;3.17;;
17890;SDS011;9071;48.220;14.480;2024-02-21T06:15:35;8.73;;;3.83;;
17890;SDS011;9071;48.220;14.480;2024-02-21T06:20:38;11.07;;;3.00;;
17890;SDS011;9071;48.220;14.480;2024-02-21T06:25:41;8.87;;;3.20;;
17890;SDS011;9071;48.220;14.480;2024-02-21T06:30:44;6.13;;;2.80;;
17890;SDS011;9071;48.220;14.480;2024-02-21T06:35:46;4.30;;;2.50;;
17890;SDS011;9071;48.220;14.480;2024-02-21T06:40:49;9.80;;;3.17;;
17890;SDS011;9071;48.220;14.480;2024-02-21T06:45:52;7.03;;;2.80;;
17890;SDS011;9071;48.220;14.480;2024-02-21T06:50:57;11.03;;;3.27;;
17890;SDS011;9071;48.220;14.480;2024-02-21T06:56:00;8.57;;;3.17;;
17890;SDS011;9071;48.220;14.480;2024-02-21T07:01:03;8.90;;;3.23;;
17890;SDS011;9071;48.220;14.480;2024-02-21T07:06:05;10.90;;;3.07;;
17890;SDS011;9071;48.220;14.480;2024-02-21T07:11:08;10.03;;;2.60;;
17890;SDS011;9071;48.220;14.480;2024-02-21T07:16:10;7.97;;;2.70;;
17890;SDS011;9071;48.220;14.480;2024-02-21T07:21:12;7.23;;;2.50;;
17890;SDS011;9071;48.220;14.480;2024-02-21T07:26:16;9.90;;;2.73;;
17890;SDS011;9071;48.220;14.480;2024-02-21T07:31:18;8.70;;;3.37;;
17890;SDS011;9071;48.220;14.480;2024-02-21T07:36:25;6.87;;;2.40;;
17890;SDS011;9071;48.220;14.480;2024-02-21T07:41:30;6.37;;;2.63;;
17890;SDS011;9071;48.220;14.480;2024-02-21T07:46:33;6.97;;;2.90;;
17890;SDS011;9071;48.220;14.480;2024-02-21T07:51:35;6.33;;;2.70;;
17890;SDS011;9071;48.220;14.480;2024-02-21T07:56:39;8.50;;;2.60;;
17890;SDS011;9071;48.220;14.480;2024-02-21T08:01:41;6.87;;;2.60;;
17890;SDS011;9071;48.220;14.480;2024-02-21T08:06:44;6.73;;;2.67;;
17890;SDS011;9071;48.220;14.480;2024-02-21T08:11:50;8.30;;;2.20;;
17890;SDS011;9071;48.220;14.480;2024-02-21T08:16:52;12.37;;;3.07;;
17890;SDS011;9071;48.220;14.480;2024-02-21T08:21:55;7.43;;;1.90;;
17890;SDS011;9071;48.220;14.480;2024-02-21T08:26:59;7.83;;;2.40;;
17890;SDS011;9071;48.220;14.480;2024-02-21T08:32:01;3.70;;;1.63;;
17890;SDS011;9071;48.220;14.480;2024-02-21T08:37:03;5.40;;;2.10;;
17890;SDS011;9071;48.220;14.480;2024-02-21T08:42:06;6.80;;;2.40;;
17890;SDS011;9071;48.220;14.480;2024-02-21T08:47:08;5.27;;;1.80;;
17890;SDS011;9071;48.220;14.480;2024-02-21T08:52:10;10.97;;;2.67;;
17890;SDS011;9071;48.220;14.480;2024-02-21T08:57:14;13.47;;;2.70;;
17890;SDS011;9071;48.220;14.480;2024-02-21T09:02:16;7.43;;;2.20;;
17890;SDS011;9071;48.220;14.480;2024-02-21T09:07:18;6.63;;;2.80;;
17890;SDS011;9071;48.220;14.480;2024-02-21T09:12:22;7.50;;;2.20;;
17890;SDS011;9071;48.220;14.480;2024-02-21T09:17:24;9.27;;;2.67;;
17890;SDS011;9071;48.220;14.480;2024-02-21T09:22:29;6.67;;;2.43;;
17890;SDS011;9071;48.220;14.480;2024-02-21T09:27:33;9.03;;;2.83;;
17890;SDS011;9071;48.220;14.480;2024-02-21T09:32:35;6.37;;;2.40;;
17890;SDS011;9071;48.220;14.480;2024-02-21T09:37:37;8.43;;;2.10;;
17890;SDS011;9071;48.220;14.480;2024-02-21T09:42:41;9.37;;;2.37;;
17890;SDS011;9071;48.220;14.480;2024-02-21T09:47:44;5.33;;;2.07;;
17890;SDS011;9071;48.220;14.480;2024-02-21T09:52:57;3.80;;;2.17;;
17890;SDS011;9071;48.220;14.480;2024-02-21T09:58:03;13.73;;;2.60;;
17890;SDS011;9071;48.220;14.480;2024-02-21T10:03:06;8.93;;;2.43;;
17890;SDS011;9071;48.220;14.480;2024-02-21T10:08:13;10.90;;;2.70;;
17890;SDS011;9071;48.220;14.480;2024-02-21T10:13:25;3.93;;;2.30;;
17890;SDS011;9071;48.220;14.480;2024-02-21T10:18:28;7.50;;;2.50;;
17890;SDS011;9071;48.220;14.480;2024-02-21T10:23:40;6.40;;;2.20;;
17890;SDS011;9071;48.220;14.480;2024-02-21T10:28:47;4.40;;;2.30;;
17890;SDS011;9071;48.220;14.480;2024-02-21T10:33:55;5.50;;;2.63;;
17890;SDS011;9071;48.220;14.480;2024-02-21T10:38:58;8.43;;;3.10;;
17890;SDS011;9071;48.220;14.480;2024-02-21T10:44:01;4.77;;;2.17;;
17890;SDS011;9071;48.220;14.480;2024-02-21T10:49:10;5.50;;;2.00;;
17890;SDS011;9071;48.220;14.480;2024-02-21T10:54:24;5.53;;;1.97;;
17890;SDS011;9071;48.220;14.480;2024-02-21T10:59:37;8.77;;;2.20;;
17890;SDS011;9071;48.220;14.480;2024-02-21T11:04:40;6.47;;;2.07;;
17890;SDS011;9071;48.220;14.480;2024-02-21T11:09:50;9.70;;;2.37;;
17890;SDS011;9071;48.220;14.480;2024-02-21T11:14:54;7.47;;;2.00;;
17890;SDS011;9071;48.220;14.480;2024-02-21T11:20:11;4.80;;;2.33;;
17890;SDS011;9071;48.220;14.480;2024-02-21T11:25:20;4.60;;;2.03;;
17890;SDS011;9071;48.220;14.480;2024-02-21T11:30:27;4.57;;;2.27;;
17890;SDS011;9071;48.220;14.480;2024-02-21T11:35:31;6.50;;;2.23;;
17890;SDS011;9071;48.220;14.480;2024-02-21T11:40:34;6.03;;;2.47;;
17890;SDS011;9071;48.220;14.480;2024-02-21T11:45:37;5.53;;;2.20;;
17890;SDS011;9071;48.220;14.480;2024-02-21T11:50:40;4.23;;;1.90;;
17890;SDS011;9071;48.220;14.480;2024-02-21T11:55:42;5.50;;;2.00;;
17890;SDS011;9071;48.220;14.480;2024-02-21T12:00:45;5.10;;;2.00;;
17890;SDS011;9071;48.220;14.480;2024-02-21T12:05:47;5.70;;;2.00;;
17890;SDS011;9071;48.220;14.480;2024-02-21T12:10:49;4.03;;;1.97;;
17890;SDS011;9071;48.220;14.480;2024-02-21T12:15:53;7.23;;;2.17;;
17890;SDS011;9071;48.220;14.480;2024-02-21T12:20:55;9.87;;;3.10;;
17890;SDS011;9071;48.220;14.480;2024-02-21T12:25:58;6.37;;;2.20;;
17890;SDS011;9071;48.220;14.480;2024-02-21T12:31:02;7.67;;;2.53;;
17890;SDS011;9071;48.220;14.480;2024-02-21T12:36:04;8.00;;;2.27;;
17890;SDS011;9071;48.220;14.480;2024-02-21T12:41:08;6.30;;;2.00;;
17890;SDS011;9071;48.220;14.480;2024-02-21T12:46:12;9.33;;;1.80;;
17890;SDS011;9071;48.220;14.480;2024-02-21T12:51:14;6.07;;;2.00;;
17890;SDS011;9071;48.220;14.480;2024-02-21T12:56:20;7.03;;;2.33;;
17890;SDS011;9071;48.220;14.480;2024-02-21T13:01:24;7.83;;;2.27;;
17890;SDS011;9071;48.220;14.480;2024-02-21T13:06:26;6.63;;;2.27;;
17890;SDS011;9071;48.220;14.480;2024-02-21T13:11:28;6.13;;;1.93;;
17890;SDS011;9071;48.220;14.480;2024-02-21T13:16:32;4.83;;;1.97;;
17890;SDS011;9071;48.220;14.480;2024-02-21T13:21:39;3.50;;;1.90;;
17890;SDS011;9071;48.220;14.480;2024-02-21T13:26:41;6.07;;;2.03;;
17890;SDS011;9071;48.220;14.480;2024-02-21T13:31:44;7.77;;;2.20;;
17890;SDS011;9071;48.220;14.480;2024-02-21T13:36:46;4.43;;;2.00;;
17890;SDS011;9071;48.220;14.480;2024-02-21T13:41:48;7.10;;;2.03;;
17890;SDS011;9071;48.220;14.480;2024-02-21T13:46:52;6.97;;;2.27;;
17890;SDS011;9071;48.220;14.480;2024-02-21T13:51:54;9.80;;;2.17;;
17890;SDS011;9071;48.220;14.480;2024-02-21T13:56:56;3.30;;;1.93;;
17890;SDS011;9071;48.220;14.480;2024-02-21T14:01:59;4.53;;;2.27;;
17890;SDS011;9071;48.220;14.480;2024-02-21T14:07:01;5.23;;;2.10;;
17890;SDS011;9071;48.220;14.480;2024-02-21T14:12:04;8.00;;;2.10;;
17890;SDS011;9071;48.220;14.480;2024-02-21T14:17:09;9.30;;;2.33;;
17890;SDS011;9071;48.220;14.480;2024-02-21T14:22:11;6.10;;;2.23;;
17890;SDS011;9071;48.220;14.480;2024-02-21T14:27:13;6.30;;;2.03;;
17890;SDS011;9071;48.220;14.480;2024-02-21T14:32:17;7.63;;;2.03;;
17890;SDS011;9071;48.220;14.480;2024-02-21T14:37:19;7.10;;;2.00;;
17890;SDS011;9071;48.220;14.480;2024-02-21T14:42:21;4.70;;;1.90;;
17890;SDS011;9071;48.220;14.480;2024-02-21T14:47:25;6.17;;;2.17;;
17890;SDS011;9071;48.220;14.480;2024-02-21T14:52:27;6.40;;;2.23;;
17890;SDS011;9071;48.220;14.480;2024-02-21T14:57:29;6.17;;;2.10;;
17890;SDS011;9071;48.220;14.480;2024-02-21T15:02:33;6.17;;;2.03;;
17890;SDS011;9071;48.220;14.480;2024-02-21T15:07:35;8.13;;;2.10;;
17890;SDS011;9071;48.220;14.480;2024-02-21T15:12:37;5.50;;;1.80;;
17890;SDS011;9071;48.220;14.480;2024-02-21T15:17:41;8.53;;;2.20;;
17890;SDS011;9071;48.220;14.480;2024-02-21T15:22:43;6.50;;;2.67;;
17890;SDS011;9071;48.220;14.480;2024-02-21T15:27:46;4.50;;;1.93;;
17890;SDS011;9071;48.220;14.480;2024-02-21T15:32:49;7.30;;;2.73;;
17890;SDS011;9071;48.220;14.480;2024-02-21T15:37:52;5.63;;;2.33;;
17890;SDS011;9071;48.220;14.480;2024-02-21T15:42:54;8.37;;;2.27;;
17890;SDS011;9071;48.220;14.480;2024-02-21T15:47:58;6.30;;;2.20;;
17890;SDS011;9071;48.220;14.480;2024-02-21T15:53:00;11.27;;;2.30;;
17890;SDS011;9071;48.220;14.480;2024-02-21T15:58:02;10.53;;;2.30;;
17890;SDS011;9071;48.220;14.480;2024-02-21T16:03:06;7.97;;;2.30;;
17890;SDS011;9071;48.220;14.480;2024-02-21T16:08:08;6.07;;;2.73;;
17890;SDS011;9071;48.220;14.480;2024-02-21T16:13:10;9.90;;;3.00;;
17890;SDS011;9071;48.220;14.480;2024-02-21T16:18:13;6.00;;;2.73;;
17890;SDS011;9071;48.220;14.480;2024-02-21T16:23:20;7.23;;;3.43;;
17890;SDS011;9071;48.220;14.480;2024-02-21T16:28:23;9.63;;;3.93;;
17890;SDS011;9071;48.220;14.480;2024-02-21T16:33:26;11.27;;;3.57;;
17890;SDS011;9071;48.220;14.480;2024-02-21T16:38:28;7.57;;;3.20;;
17890;SDS011;9071;48.220;14.480;2024-02-21T16:43:33;6.67;;;2.90;;
17890;SDS011;9071;48.220;14.480;2024-02-21T16:48:36;9.87;;;4.10;;
17890;SDS011;9071;48.220;14.480;2024-02-21T16:53:38;16.27;;;6.03;;
17890;SDS011;9071;48.220;14.480;2024-02-21T16:58:40;23.80;;;9.30;;
17890;SDS011;9071;48.220;14.480;2024-02-21T17:03:44;21.00;;;7.97;;
17890;SDS011;9071;48.220;14.480;2024-02-21T17:08:46;12.30;;;5.40;;
17890;SDS011;9071;48.220;14.480;2024-02-21T17:13:48;11.80;;;5.80;;
17890;SDS011;9071;48.220;14.480;2024-02-21T17:18:52;14.30;;;6.73;;
17890;SDS011;9071;48.220;14.480;2024-02-21T17:23:54;11.70;;;7.00;;
17890;SDS011;9071;48.220;14.480;2024-02-21T17:28:56;18.87;;;9.77;;
17890;SDS011;9071;48.220;14.480;2024-02-21T17:33:59;21.80;;;12.10;;
17890;SDS011;9071;48.220;14.480;2024-02-21T17:39:01;22.97;;;9.93;;
17890;SDS011;9071;48.220;14.480;2024-02-21T17:44:05;40.83;;;16.63;;
17890;SDS011;9071;48.220;14.480;2024-02-21T17:49:09;27.27;;;12.17;;
17890;SDS011;9071;48.220;14.480;2024-02-21T17:54:11;32.80;;;12.20;;
17890;SDS011;9071;48.220;14.480;2024-02-21T17:59:14;38.17;;;16.33;;
17890;SDS011;9071;48.220;14.480;2024-02-21T18:04:19;39.27;;;17.77;;
17890;SDS011;9071;48.220;14.480;2024-02-21T18:09:21;40.43;;;17.60;;
17890;SDS011;9071;48.220;14.480;2024-02-21T18:14:23;37.90;;;15.63;;
17890;SDS011;9071;48.220;14.480;2024-02-21T18:19:27;22.17;;;9.93;;
17890;SDS011;9071;48.220;14.480;2024-02-21T18:24:29;21.47;;;11.30;;
17890;SDS011;9071;48.220;14.480;2024-02-21T18:29:31;21.77;;;9.57;;
17890;SDS011;9071;48.220;14.480;2024-02-21T18:34:35;25.80;;;10.77;;
17890;SDS011;9071;48.220;14.480;2024-02-21T18:39:37;24.90;;;11.07;;
17890;SDS011;9071;48.220;14.480;2024-02-21T18:44:39;24.73;;;11.50;;
17890;SDS011;9071;48.220;14.480;2024-02-21T18:49:42;22.30;;;9.83;;
17890;SDS011;9071;48.220;14.480;2024-02-21T18:54:44;24.63;;;10.63;;
17890;SDS011;9071;48.220;14.480;2024-02-21T18:59:47;21.03;;;10.47;;
17890;SDS011;9071;48.220;14.480;2024-02-21T19:04:50;15.03;;;6.93;;
17890;SDS011;9071;48.220;14.480;2024-02-21T19:09:52;15.53;;;8.37;;
17890;SDS011;9071;48.220;14.480;2024-02-21T19:14:54;19.10;;;8.07;;
17890;SDS011;9071;48.220;14.480;2024-02-21T19:19:58;12.40;;;6.53;;
17890;SDS011;9071;48.220;14.480;2024-02-21T19:25:00;14.43;;;7.50;;
17890;SDS011;9071;48.220;14.480;2024-02-21T19:30:07;13.73;;;6.73;;
17890;SDS011;9071;48.220;14.480;2024-02-21T19:35:12;16.67;;;7.77;;
17890;SDS011;9071;48.220;14.480;2024-02-21T19:40:14;15.93;;;7.90;;
17890;SDS011;9071;48.220;14.480;2024-02-21T19:45:16;21.07;;;8.50;;
17890;SDS011;9071;48.220;14.480;2024-02-21T19:50:20;15.93;;;7.63;;
17890;SDS011;9071;48.220;14.480;2024-02-21T19:55:22;19.13;;;7.90;;
17890;SDS011;9071;48.220;14.480;2024-02-21T20:00:24;16.30;;;8.63;;
17890;SDS011;9071;48.220;14.480;2024-02-21T20:05:29;15.83;;;9.17;;
17890;SDS011;9071;48.220;14.480;2024-02-21T20:10:32;13.97;;;8.40;;
17890;SDS011;9071;48.220;14.480;2024-02-21T20:15:34;14.33;;;7.60;;
17890;SDS011;9071;48.220;14.480;2024-02-21T20:20:38;20.43;;;8.30;;
17890;SDS011;9071;48.220;14.480;2024-02-21T20:25:41;14.33;;;7.50;;
17890;SDS011;9071;48.220;14.480;2024-02-21T20:30:43;18.87;;;9.27;;
17890;SDS011;9071;48.220;14.480;2024-02-21T20:35:46;22.33;;;10.03;;
17890;SDS011;9071;48.220;14.480;2024-02-21T20:40:49;19.43;;;10.53;;
17890;SDS011;9071;48.220;14.480;2024-02-21T20:45:51;21.10;;;11.27;;
17890;SDS011;9071;48.220;14.480;2024-02-21T20:50:54;28.77;;;13.13;;
17890;SDS011;9071;48.220;14.480;2024-02-21T20:55:56;18.23;;;11.07;;
17890;SDS011;9071;48.220;14.480;2024-02-21T21:00:58;23.40;;;11.17;;
17890;SDS011;9071;48.220;14.480;2024-02-21T21:06:02;18.87;;;10.43;;
17890;SDS011;9071;48.220;14.480;2024-02-21T21:11:04;23.13;;;10.87;;
17890;SDS011;9071;48.220;14.480;2024-02-21T21:16:06;21.70;;;11.10;;
17890;SDS011;9071;48.220;14.480;2024-02-21T21:21:10;20.53;;;11.17;;
17890;SDS011;9071;48.220;14.480;2024-02-21T21:26:13;20.90;;;10.17;;
17890;SDS011;9071;48.220;14.480;2024-02-21T21:31:15;22.60;;;11.33;;
17890;SDS011;9071;48.220;14.480;2024-02-21T21:36:20;24.97;;;11.53;;
17890;SDS011;9071;48.220;14.480;2024-02-21T21:41:22;20.33;;;10.00;;
17890;SDS011;9071;48.220;14.480;2024-02-21T21:46:26;19.43;;;10.53;;
17890;SDS011;9071;48.220;14.480;2024-02-21T21:51:29;23.07;;;11.00;;
17890;SDS011;9071;48.220;14.480;2024-02-21T21:56:31;24.17;;;12.07;;
17890;SDS011;9071;48.220;14.480;2024-02-21T22:01:34;24.50;;;11.20;;
17890;SDS011;9071;48.220;14.480;2024-02-21T22:06:37;18.10;;;9.87;;
17890;SDS011;9071;48.220;14.480;2024-02-21T22:11:40;19.33;;;9.77;;
17890;SDS011;9071;48.220;14.480;2024-02-21T22:16:42;20.13;;;10.40;;
17890;SDS011;9071;48.220;14.480;2024-02-21T22:21:46;20.23;;;10.10;;
17890;SDS011;9071;48.220;14.480;2024-02-21T22:26:48;19.17;;;9.83;;
17890;SDS011;9071;48.220;14.480;2024-02-21T22:31:50;19.93;;;9.53;;
17890;SDS011;9071;48.220;14.480;2024-02-21T22:36:54;25.00;;;11.77;;
17890;SDS011;9071;48.220;14.480;2024-02-21T22:41:56;19.67;;;10.03;;
17890;SDS011;9071;48.220;14.480;2024-02-21T22:46:58;18.73;;;10.33;;
17890;SDS011;9071;48.220;14.480;2024-02-21T22:52:02;22.03;;;10.37;;
17890;SDS011;9071;48.220;14.480;2024-02-21T22:57:04;19.20;;;10.10;;
17890;SDS011;9071;48.220;14.480;2024-02-21T23:02:07;16.73;;;9.77;;
17890;SDS011;9071;48.220;14.480;2024-02-21T23:07:10;14.13;;;9.07;;
17890;SDS011;9071;48.220;14.480;2024-02-21T23:12:12;19.20;;;10.63;;
17890;SDS011;9071;48.220;14.480;2024-02-21T23:17:17;16.20;;;9.20;;
17890;SDS011;9071;48.220;14.480;2024-02-21T23:22:20;19.20;;;10.20;;
17890;SDS011;9071;48.220;14.480;2024-02-21T23:27:22;21.07;;;10.40;;
17890;SDS011;9071;48.220;14.480;2024-02-21T23:32:24;20.57;;;10.20;;
17890;SDS011;9071;48.220;14.480;2024-02-21T23:37:28;21.47;;;10.87;;
17890;SDS011;9071;48.220;14.480;2024-02-21T23:42:30;20.83;;;10.83;;
17890;SDS011;9071;48.220;14.480;2024-02-21T23:47:32;18.33;;;10.93;;
17890;SDS011;9071;48.220;14.480;2024-02-21T23:52:35;22.87;;;11.00;;
17890;SDS011;9071;48.220;14.480;2024-02-21T23:57:37;20.23;;;11.37;;
